sensor_id;sensor_type;location;lat;lon;timestamp;temperature;humidity
73683;DHT22;72538;48.146;11.740;2023-10-13T00:00:33;18.30;60.00
73683;DHT22;72538;48.146;11.740;2023-10-13T00:03:05;18.30;60.20
73683;DHT22;72538;48.146;11.740;2023-10-13T00:05:32;18.20;60.40
73683;DHT22;72538;48.146;11.740;2023-10-13T00:07:59;18.10;60.60
73683;DHT22;72538;48.146;11.740;2023-10-13T00:10:29;18.00;60.10
73683;DHT22;72538;48.146;11.740;2023-10-13T00:12:56;18.00;60.30
73683;DHT22;72538;48.146;11.740;2023-10-13T00:15:42;17.90;60.60
73683;DHT22;72538;48.146;11.740;2023-10-13T00:18:26;17.90;60.40
73683;DHT22;72538;48.146;11.740;2023-10-13T00:20:53;17.70;60.50
73683;DHT22;72538;48.146;11.740;2023-10-13T00:23:21;17.60;60.80
73683;DHT22;72538;48.146;11.740;2023-10-13T00:25:49;17.50;61.00
73683;DHT22;72538;48.146;11.740;2023-10-13T00:28:19;17.40;61.60
73683;DHT22;72538;48.146;11.740;2023-10-13T00:30:53;17.30;62.30
73683;DHT22;72538;48.146;11.740;2023-10-13T00:33:20;17.30;62.70
73683;DHT22;72538;48.146;11.740;2023-10-13T00:35:49;17.20;62.80
73683;DHT22;72538;48.146;11.740;2023-10-13T00:38:17;17.10;63.20
73683;DHT22;72538;48.146;11.740;2023-10-13T00:40:45;17.10;63.60
73683;DHT22;72538;48.146;11.740;2023-10-13T00:43:18;17.00;63.60
73683;DHT22;72538;48.146;11.740;2023-10-13T00:45:57;17.00;63.60
73683;DHT22;72538;48.146;11.740;2023-10-13T00:48:31;17.00;63.40
73683;DHT22;72538;48.146;11.740;2023-10-13T00:51:05;16.90;63.50
73683;DHT22;72538;48.146;11.740;2023-10-13T00:53:36;16.90;63.60
73683;DHT22;72538;48.146;11.740;2023-10-13T00:56:09;16.90;63.80
73683;DHT22;72538;48.146;11.740;2023-10-13T00:58:36;16.90;63.50
73683;DHT22;72538;48.146;11.740;2023-10-13T01:01:05;16.90;63.50
73683;DHT22;72538;48.146;11.740;2023-10-13T01:03:45;16.90;63.80
73683;DHT22;72538;48.146;11.740;2023-10-13T01:06:19;16.80;64.30
73683;DHT22;72538;48.146;11.740;2023-10-13T01:08:47;16.80;65.20
73683;DHT22;72538;48.146;11.740;2023-10-13T01:11:20;16.80;64.80
73683;DHT22;72538;48.146;11.740;2023-10-13T01:13:48;16.70;64.90
73683;DHT22;72538;48.146;11.740;2023-10-13T01:16:15;16.60;65.00
73683;DHT22;72538;48.146;11.740;2023-10-13T01:18:42;16.50;66.20
73683;DHT22;72538;48.146;11.740;2023-10-13T01:21:16;16.40;66.60
73683;DHT22;72538;48.146;11.740;2023-10-13T01:23:44;16.30;67.40
73683;DHT22;72538;48.146;11.740;2023-10-13T01:26:11;16.30;68.10
73683;DHT22;72538;48.146;11.740;2023-10-13T01:28:39;16.20;67.80
73683;DHT22;72538;48.146;11.740;2023-10-13T01:31:12;16.20;68.30
73683;DHT22;72538;48.146;11.740;2023-10-13T01:33:40;16.10;68.30
73683;DHT22;72538;48.146;11.740;2023-10-13T01:36:05;16.00;67.80
73683;DHT22;72538;48.146;11.740;2023-10-13T01:38:36;16.00;68.50
73683;DHT22;72538;48.146;11.740;2023-10-13T01:41:07;15.90;67.70
73683;DHT22;72538;48.146;11.740;2023-10-13T01:43:34;15.90;68.30
73683;DHT22;72538;48.146;11.740;2023-10-13T01:46:00;15.90;68.20
73683;DHT22;72538;48.146;11.740;2023-10-13T01:48:28;15.90;68.30
73683;DHT22;72538;48.146;11.740;2023-10-13T01:50:56;15.90;68.60
73683;DHT22;72538;48.146;11.740;2023-10-13T01:53:24;15.90;69.00
73683;DHT22;72538;48.146;11.740;2023-10-13T01:55:49;15.90;69.40
73683;DHT22;72538;48.146;11.740;2023-10-13T01:58:16;15.80;69.60
73683;DHT22;72538;48.146;11.740;2023-10-13T02:00:43;15.80;69.50
73683;DHT22;72538;48.146;11.740;2023-10-13T02:03:10;15.70;69.80
73683;DHT22;72538;48.146;11.740;2023-10-13T02:05:46;15.70;70.30
73683;DHT22;72538;48.146;11.740;2023-10-13T02:08:21;15.60;70.10
73683;DHT22;72538;48.146;11.740;2023-10-13T02:10:50;15.50;70.60
73683;DHT22;72538;48.146;11.740;2023-10-13T02:13:17;15.40;71.10
73683;DHT22;72538;48.146;11.740;2023-10-13T02:15:44;15.40;71.20
73683;DHT22;72538;48.146;11.740;2023-10-13T02:18:16;15.30;71.70
73683;DHT22;72538;48.146;11.740;2023-10-13T02:20:56;15.20;71.80
73683;DHT22;72538;48.146;11.740;2023-10-13T02:23:24;15.20;72.20
73683;DHT22;72538;48.146;11.740;2023-10-13T02:25:53;15.10;73.00
73683;DHT22;72538;48.146;11.740;2023-10-13T02:28:20;15.10;72.80
73683;DHT22;72538;48.146;11.740;2023-10-13T02:30:51;15.00;72.40
73683;DHT22;72538;48.146;11.740;2023-10-13T02:33:19;15.00;72.50
73683;DHT22;72538;48.146;11.740;2023-10-13T02:35:46;15.00;73.70
73683;DHT22;72538;48.146;11.740;2023-10-13T02:38:21;14.90;72.90
73683;DHT22;72538;48.146;11.740;2023-10-13T02:40:49;14.90;73.40
73683;DHT22;72538;48.146;11.740;2023-10-13T02:43:15;14.90;74.70
73683;DHT22;72538;48.146;11.740;2023-10-13T02:45:40;14.80;75.00
73683;DHT22;72538;48.146;11.740;2023-10-13T02:48:09;14.80;75.00
73683;DHT22;72538;48.146;11.740;2023-10-13T02:50:40;14.70;74.70
73683;DHT22;72538;48.146;11.740;2023-10-13T02:53:08;14.60;75.20
73683;DHT22;72538;48.146;11.740;2023-10-13T02:55:36;14.60;76.30
73683;DHT22;72538;48.146;11.740;2023-10-13T02:58:03;14.50;76.60
73683;DHT22;72538;48.146;11.740;2023-10-13T03:00:29;14.40;76.60
73683;DHT22;72538;48.146;11.740;2023-10-13T03:02:58;14.30;76.90
73683;DHT22;72538;48.146;11.740;2023-10-13T03:05:24;14.30;77.30
73683;DHT22;72538;48.146;11.740;2023-10-13T03:07:52;14.30;77.50
73683;DHT22;72538;48.146;11.740;2023-10-13T03:10:18;14.20;77.20
73683;DHT22;72538;48.146;11.740;2023-10-13T03:12:44;14.20;77.70
73683;DHT22;72538;48.146;11.740;2023-10-13T03:15:12;14.10;77.70
73683;DHT22;72538;48.146;11.740;2023-10-13T03:17:40;14.10;77.50
73683;DHT22;72538;48.146;11.740;2023-10-13T03:20:13;14.10;77.50
73683;DHT22;72538;48.146;11.740;2023-10-13T03:22:42;14.00;78.00
73683;DHT22;72538;48.146;11.740;2023-10-13T03:25:12;14.00;77.60
73683;DHT22;72538;48.146;11.740;2023-10-13T03:27:43;14.00;78.10
73683;DHT22;72538;48.146;11.740;2023-10-13T03:30:20;13.90;78.00
73683;DHT22;72538;48.146;11.740;2023-10-13T03:32:48;13.90;78.30
73683;DHT22;72538;48.146;11.740;2023-10-13T03:35:15;13.90;78.60
73683;DHT22;72538;48.146;11.740;2023-10-13T03:37:51;13.80;78.90
73683;DHT22;72538;48.146;11.740;2023-10-13T03:40:17;13.80;79.00
73683;DHT22;72538;48.146;11.740;2023-10-13T03:42:49;13.70;79.30
73683;DHT22;72538;48.146;11.740;2023-10-13T03:45:26;13.70;79.70
73683;DHT22;72538;48.146;11.740;2023-10-13T03:47:53;13.60;79.70
73683;DHT22;72538;48.146;11.740;2023-10-13T03:50:19;13.60;79.80
73683;DHT22;72538;48.146;11.740;2023-10-13T03:52:55;13.60;80.20
73683;DHT22;72538;48.146;11.740;2023-10-13T03:55:28;13.50;80.50
73683;DHT22;72538;48.146;11.740;2023-10-13T03:57:55;13.50;80.30
73683;DHT22;72538;48.146;11.740;2023-10-13T04:00:22;13.40;79.70
73683;DHT22;72538;48.146;11.740;2023-10-13T04:02:52;13.40;79.80
73683;DHT22;72538;48.146;11.740;2023-10-13T04:05:20;13.40;81.30
73683;DHT22;72538;48.146;11.740;2023-10-13T04:08:05;13.40;81.60
73683;DHT22;72538;48.146;11.740;2023-10-13T04:10:37;13.30;81.20
73683;DHT22;72538;48.146;11.740;2023-10-13T04:13:13;13.30;81.60
73683;DHT22;72538;48.146;11.740;2023-10-13T04:15:58;13.20;81.90
73683;DHT22;72538;48.146;11.740;2023-10-13T04:18:42;13.20;82.30
73683;DHT22;72538;48.146;11.740;2023-10-13T04:21:22;13.10;82.00
73683;DHT22;72538;48.146;11.740;2023-10-13T04:24:11;13.10;82.30
73683;DHT22;72538;48.146;11.740;2023-10-13T04:26:45;13.10;82.30
73683;DHT22;72538;48.146;11.740;2023-10-13T04:29:29;13.00;81.00
73683;DHT22;72538;48.146;11.740;2023-10-13T04:32:16;13.10;80.70
73683;DHT22;72538;48.146;11.740;2023-10-13T04:34:43;13.20;80.00
73683;DHT22;72538;48.146;11.740;2023-10-13T04:37:12;13.20;79.90
73683;DHT22;72538;48.146;11.740;2023-10-13T04:39:49;13.30;79.00
73683;DHT22;72538;48.146;11.740;2023-10-13T04:42:17;13.30;78.60
73683;DHT22;72538;48.146;11.740;2023-10-13T04:44:45;13.40;78.50
73683;DHT22;72538;48.146;11.740;2023-10-13T04:47:13;13.40;77.90
73683;DHT22;72538;48.146;11.740;2023-10-13T04:49:47;13.40;77.80
73683;DHT22;72538;48.146;11.740;2023-10-13T04:52:15;13.40;78.10
73683;DHT22;72538;48.146;11.740;2023-10-13T04:55:00;13.40;78.10
73683;DHT22;72538;48.146;11.740;2023-10-13T04:57:29;13.40;78.00
73683;DHT22;72538;48.146;11.740;2023-10-13T05:00:05;13.40;77.60
73683;DHT22;72538;48.146;11.740;2023-10-13T05:02:44;13.40;77.60
73683;DHT22;72538;48.146;11.740;2023-10-13T05:05:14;13.30;77.50
73683;DHT22;72538;48.146;11.740;2023-10-13T05:07:42;13.30;77.20
73683;DHT22;72538;48.146;11.740;2023-10-13T05:10:28;13.40;77.00
73683;DHT22;72538;48.146;11.740;2023-10-13T05:13:12;13.40;76.60
73683;DHT22;72538;48.146;11.740;2023-10-13T05:15:57;13.40;76.20
73683;DHT22;72538;48.146;11.740;2023-10-13T05:18:41;13.50;76.00
73683;DHT22;72538;48.146;11.740;2023-10-13T05:21:25;13.50;76.00
73683;DHT22;72538;48.146;11.740;2023-10-13T05:24:09;13.50;76.00
73683;DHT22;72538;48.146;11.740;2023-10-13T05:26:54;13.50;75.90
73683;DHT22;72538;48.146;11.740;2023-10-13T05:29:41;13.50;75.80
73683;DHT22;72538;48.146;11.740;2023-10-13T05:32:26;13.50;75.50
73683;DHT22;72538;48.146;11.740;2023-10-13T05:35:11;13.60;75.50
73683;DHT22;72538;48.146;11.740;2023-10-13T05:37:55;13.60;75.20
73683;DHT22;72538;48.146;11.740;2023-10-13T05:40:39;13.70;75.20
73683;DHT22;72538;48.146;11.740;2023-10-13T05:43:23;13.70;75.10
73683;DHT22;72538;48.146;11.740;2023-10-13T05:46:08;13.70;75.10
73683;DHT22;72538;48.146;11.740;2023-10-13T05:48:48;13.70;75.00
73683;DHT22;72538;48.146;11.740;2023-10-13T05:51:29;13.70;75.30
73683;DHT22;72538;48.146;11.740;2023-10-13T05:53:59;13.70;75.50
73683;DHT22;72538;48.146;11.740;2023-10-13T05:56:48;13.70;76.00
73683;DHT22;72538;48.146;11.740;2023-10-13T05:59:31;13.70;76.00
73683;DHT22;72538;48.146;11.740;2023-10-13T06:02:20;13.70;76.20
73683;DHT22;72538;48.146;11.740;2023-10-13T06:05:06;13.70;75.90
73683;DHT22;72538;48.146;11.740;2023-10-13T06:07:51;13.80;75.40
73683;DHT22;72538;48.146;11.740;2023-10-13T06:10:37;13.90;75.20
73683;DHT22;72538;48.146;11.740;2023-10-13T06:13:21;14.10;74.80
73683;DHT22;72538;48.146;11.740;2023-10-13T06:16:14;14.20;74.50
73683;DHT22;72538;48.146;11.740;2023-10-13T06:18:59;14.30;74.50
73683;DHT22;72538;48.146;11.740;2023-10-13T06:24:49;14.60;74.60
73683;DHT22;72538;48.146;11.740;2023-10-13T06:27:34;14.60;74.00
73683;DHT22;72538;48.146;11.740;2023-10-13T06:30:18;14.70;74.10
73683;DHT22;72538;48.146;11.740;2023-10-13T06:32:44;14.80;73.80
73683;DHT22;72538;48.146;11.740;2023-10-13T06:35:11;14.80;73.60
73683;DHT22;72538;48.146;11.740;2023-10-13T06:37:50;15.00;73.50
73683;DHT22;72538;48.146;11.740;2023-10-13T06:40:16;15.20;72.80
73683;DHT22;72538;48.146;11.740;2023-10-13T06:42:50;15.40;72.50
73683;DHT22;72538;48.146;11.740;2023-10-13T06:45:15;15.80;71.60
73683;DHT22;72538;48.146;11.740;2023-10-13T06:47:43;15.90;70.70
73683;DHT22;72538;48.146;11.740;2023-10-13T06:50:14;16.20;69.70
73683;DHT22;72538;48.146;11.740;2023-10-13T06:52:45;16.30;69.30
73683;DHT22;72538;48.146;11.740;2023-10-13T06:55:15;16.80;68.80
73683;DHT22;72538;48.146;11.740;2023-10-13T06:57:46;17.80;66.40
73683;DHT22;72538;48.146;11.740;2023-10-13T07:00:13;20.00;63.90
73683;DHT22;72538;48.146;11.740;2023-10-13T07:02:40;20.50;58.70
73683;DHT22;72538;48.146;11.740;2023-10-13T07:05:08;19.80;57.70
73683;DHT22;72538;48.146;11.740;2023-10-13T07:07:36;19.80;58.20
73683;DHT22;72538;48.146;11.740;2023-10-13T07:10:03;20.10;57.60
73683;DHT22;72538;48.146;11.740;2023-10-13T07:12:31;20.90;56.40
73683;DHT22;72538;48.146;11.740;2023-10-13T07:14:58;20.40;56.50
73683;DHT22;72538;48.146;11.740;2023-10-13T07:17:38;20.00;56.10
73683;DHT22;72538;48.146;11.740;2023-10-13T07:20:09;20.20;56.90
73683;DHT22;72538;48.146;11.740;2023-10-13T07:22:43;22.60;54.50
73683;DHT22;72538;48.146;11.740;2023-10-13T07:25:10;25.30;48.50
73683;DHT22;72538;48.146;11.740;2023-10-13T07:27:38;26.90;43.80
73683;DHT22;72538;48.146;11.740;2023-10-13T07:30:05;28.30;41.10
73683;DHT22;72538;48.146;11.740;2023-10-13T07:32:33;27.90;41.90
73683;DHT22;72538;48.146;11.740;2023-10-13T07:34:59;28.40;38.90
73683;DHT22;72538;48.146;11.740;2023-10-13T07:37:27;28.00;39.00
73683;DHT22;72538;48.146;11.740;2023-10-13T07:39:58;28.10;39.40
73683;DHT22;72538;48.146;11.740;2023-10-13T07:42:25;27.90;39.40
73683;DHT22;72538;48.146;11.740;2023-10-13T07:44:52;27.20;39.00
73683;DHT22;72538;48.146;11.740;2023-10-13T07:47:20;27.00;39.20
73683;DHT22;72538;48.146;11.740;2023-10-13T07:49:48;26.40;38.60
73683;DHT22;72538;48.146;11.740;2023-10-13T07:52:16;26.70;40.20
73683;DHT22;72538;48.146;11.740;2023-10-13T07:54:50;26.70;40.00
73683;DHT22;72538;48.146;11.740;2023-10-13T07:57:27;27.10;40.70
73683;DHT22;72538;48.146;11.740;2023-10-13T07:59:56;28.10;39.50
73683;DHT22;72538;48.146;11.740;2023-10-13T08:02:39;28.30;36.90
73683;DHT22;72538;48.146;11.740;2023-10-13T08:05:15;28.50;35.60
73683;DHT22;72538;48.146;11.740;2023-10-13T08:07:42;28.80;35.70
73683;DHT22;72538;48.146;11.740;2023-10-13T08:10:10;28.20;34.90
73683;DHT22;72538;48.146;11.740;2023-10-13T08:12:36;27.50;35.50
73683;DHT22;72538;48.146;11.740;2023-10-13T08:15:04;26.80;36.60
73683;DHT22;72538;48.146;11.740;2023-10-13T08:17:40;26.80;36.50
73683;DHT22;72538;48.146;11.740;2023-10-13T08:20:08;27.80;36.30
73683;DHT22;72538;48.146;11.740;2023-10-13T08:22:36;28.80;34.70
73683;DHT22;72538;48.146;11.740;2023-10-13T08:25:04;28.50;34.50
73683;DHT22;72538;48.146;11.740;2023-10-13T08:27:44;29.50;33.60
73683;DHT22;72538;48.146;11.740;2023-10-13T08:30:12;30.20;33.00
73683;DHT22;72538;48.146;11.740;2023-10-13T08:32:54;30.00;31.50
73683;DHT22;72538;48.146;11.740;2023-10-13T08:35:22;29.00;32.10
73683;DHT22;72538;48.146;11.740;2023-10-13T08:37:50;29.00;32.10
73683;DHT22;72538;48.146;11.740;2023-10-13T08:40:23;29.00;33.40
73683;DHT22;72538;48.146;11.740;2023-10-13T08:43:12;29.90;33.80
73683;DHT22;72538;48.146;11.740;2023-10-13T08:45:40;29.70;31.20
73683;DHT22;72538;48.146;11.740;2023-10-13T08:48:14;30.00;30.50
73683;DHT22;72538;48.146;11.740;2023-10-13T08:50:46;29.10;31.70
73683;DHT22;72538;48.146;11.740;2023-10-13T08:53:28;28.20;32.40
73683;DHT22;72538;48.146;11.740;2023-10-13T08:56:05;27.30;34.20
73683;DHT22;72538;48.146;11.740;2023-10-13T08:58:37;27.00;34.60
73683;DHT22;72538;48.146;11.740;2023-10-13T09:01:11;28.10;35.30
73683;DHT22;72538;48.146;11.740;2023-10-13T09:03:41;28.60;33.60
73683;DHT22;72538;48.146;11.740;2023-10-13T09:06:14;28.30;33.60
73683;DHT22;72538;48.146;11.740;2023-10-13T09:08:40;28.50;33.50
73683;DHT22;72538;48.146;11.740;2023-10-13T09:11:11;29.10;33.20
73683;DHT22;72538;48.146;11.740;2023-10-13T09:13:38;28.90;32.80
73683;DHT22;72538;48.146;11.740;2023-10-13T09:16:14;29.20;32.60
73683;DHT22;72538;48.146;11.740;2023-10-13T09:18:44;28.90;32.50
73683;DHT22;72538;48.146;11.740;2023-10-13T09:21:16;29.10;32.50
73683;DHT22;72538;48.146;11.740;2023-10-13T09:23:53;29.10;30.50
73683;DHT22;72538;48.146;11.740;2023-10-13T09:26:22;28.80;30.70
73683;DHT22;72538;48.146;11.740;2023-10-13T09:28:49;29.20;30.20
73683;DHT22;72538;48.146;11.740;2023-10-13T09:31:21;29.80;30.20
73683;DHT22;72538;48.146;11.740;2023-10-13T09:33:47;29.80;29.90
73683;DHT22;72538;48.146;11.740;2023-10-13T09:36:16;29.70;30.60
73683;DHT22;72538;48.146;11.740;2023-10-13T09:38:43;30.90;30.10
73683;DHT22;72538;48.146;11.740;2023-10-13T09:41:16;30.80;28.20
73683;DHT22;72538;48.146;11.740;2023-10-13T09:43:45;29.70;29.10
73683;DHT22;72538;48.146;11.740;2023-10-13T09:46:15;30.30;30.00
73683;DHT22;72538;48.146;11.740;2023-10-13T09:48:45;30.90;29.00
73683;DHT22;72538;48.146;11.740;2023-10-13T09:51:14;31.30;30.40
73683;DHT22;72538;48.146;11.740;2023-10-13T09:53:45;31.40;27.10
73683;DHT22;72538;48.146;11.740;2023-10-13T09:56:15;30.70;27.30
73683;DHT22;72538;48.146;11.740;2023-10-13T09:59:08;31.00;28.10
73683;DHT22;72538;48.146;11.740;2023-10-13T10:01:42;30.50;28.50
73683;DHT22;72538;48.146;11.740;2023-10-13T10:04:11;31.30;29.70
73683;DHT22;72538;48.146;11.740;2023-10-13T10:06:40;31.50;26.40
73683;DHT22;72538;48.146;11.740;2023-10-13T10:09:12;31.10;26.40
73683;DHT22;72538;48.146;11.740;2023-10-13T10:12:01;30.80;25.90
73683;DHT22;72538;48.146;11.740;2023-10-13T10:14:59;31.20;26.60
73683;DHT22;72538;48.146;11.740;2023-10-13T10:17:24;32.90;25.90
73683;DHT22;72538;48.146;11.740;2023-10-13T10:19:52;33.90;25.90
73683;DHT22;72538;48.146;11.740;2023-10-13T10:22:29;33.80;24.50
73683;DHT22;72538;48.146;11.740;2023-10-13T10:25:00;33.40;24.70
73683;DHT22;72538;48.146;11.740;2023-10-13T10:27:30;34.00;24.90
73683;DHT22;72538;48.146;11.740;2023-10-13T10:29:57;34.10;24.80
73683;DHT22;72538;48.146;11.740;2023-10-13T10:35:09;36.00;22.60
73683;DHT22;72538;48.146;11.740;2023-10-13T10:37:37;37.10;23.10
73683;DHT22;72538;48.146;11.740;2023-10-13T10:40:08;37.80;21.10
73683;DHT22;72538;48.146;11.740;2023-10-13T10:42:37;38.50;20.80
73683;DHT22;72538;48.146;11.740;2023-10-13T10:45:11;38.50;21.80
73683;DHT22;72538;48.146;11.740;2023-10-13T10:47:36;39.60;19.90
73683;DHT22;72538;48.146;11.740;2023-10-13T10:52:37;40.90;17.80
73683;DHT22;72538;48.146;11.740;2023-10-13T10:55:05;41.10;19.10
73683;DHT22;72538;48.146;11.740;2023-10-13T10:57:33;42.40;18.00
73683;DHT22;72538;48.146;11.740;2023-10-13T11:00:01;44.20;17.40
73683;DHT22;72538;48.146;11.740;2023-10-13T11:02:43;45.70;16.80
73683;DHT22;72538;48.146;11.740;2023-10-13T11:05:10;43.50;16.70
73683;DHT22;72538;48.146;11.740;2023-10-13T11:07:36;42.70;18.70
73683;DHT22;72538;48.146;11.740;2023-10-13T11:10:09;43.80;17.10
73683;DHT22;72538;48.146;11.740;2023-10-13T11:12:40;44.50;16.20
73683;DHT22;72538;48.146;11.740;2023-10-13T11:15:08;46.40;15.50
73683;DHT22;72538;48.146;11.740;2023-10-13T11:17:47;47.00;15.20
73683;DHT22;72538;48.146;11.740;2023-10-13T11:20:16;47.20;15.30
73683;DHT22;72538;48.146;11.740;2023-10-13T11:22:49;48.60;15.80
73683;DHT22;72538;48.146;11.740;2023-10-13T11:25:26;49.50;14.30
73683;DHT22;72538;48.146;11.740;2023-10-13T11:27:58;50.10;15.00
73683;DHT22;72538;48.146;11.740;2023-10-13T11:30:27;50.20;14.10
73683;DHT22;72538;48.146;11.740;2023-10-13T11:32:58;49.80;14.20
73683;DHT22;72538;48.146;11.740;2023-10-13T11:35:25;48.10;14.00
73683;DHT22;72538;48.146;11.740;2023-10-13T11:37:52;46.50;14.70
73683;DHT22;72538;48.146;11.740;2023-10-13T11:40:37;47.80;15.00
73683;DHT22;72538;48.146;11.740;2023-10-13T11:43:11;49.30;14.80
73683;DHT22;72538;48.146;11.740;2023-10-13T11:45:38;50.00;14.70
73683;DHT22;72538;48.146;11.740;2023-10-13T11:48:06;48.90;13.80
73683;DHT22;72538;48.146;11.740;2023-10-13T11:50:34;48.50;14.50
73683;DHT22;72538;48.146;11.740;2023-10-13T11:53:01;48.30;14.10
73683;DHT22;72538;48.146;11.740;2023-10-13T11:55:26;48.00;14.70
73683;DHT22;72538;48.146;11.740;2023-10-13T11:57:52;47.10;15.00
73683;DHT22;72538;48.146;11.740;2023-10-13T12:00:18;47.70;14.70
73683;DHT22;72538;48.146;11.740;2023-10-13T12:02:52;46.10;14.80
73683;DHT22;72538;48.146;11.740;2023-10-13T12:05:36;46.90;15.40
73683;DHT22;72538;48.146;11.740;2023-10-13T12:08:05;47.20;14.90
73683;DHT22;72538;48.146;11.740;2023-10-13T12:10:32;45.50;15.20
73683;DHT22;72538;48.146;11.740;2023-10-13T12:13:00;47.10;15.10
73683;DHT22;72538;48.146;11.740;2023-10-13T12:15:28;45.90;14.90
73683;DHT22;72538;48.146;11.740;2023-10-13T12:17:56;45.80;14.90
73683;DHT22;72538;48.146;11.740;2023-10-13T12:20:23;46.90;14.80
73683;DHT22;72538;48.146;11.740;2023-10-13T12:23:00;48.20;14.60
73683;DHT22;72538;48.146;11.740;2023-10-13T12:25:27;47.10;14.30
73683;DHT22;72538;48.146;11.740;2023-10-13T12:28:00;47.90;14.10
73683;DHT22;72538;48.146;11.740;2023-10-13T12:30:40;46.30;14.40
73683;DHT22;72538;48.146;11.740;2023-10-13T12:33:17;47.10;14.80
73683;DHT22;72538;48.146;11.740;2023-10-13T12:35:45;45.50;14.50
73683;DHT22;72538;48.146;11.740;2023-10-13T12:38:12;44.10;18.00
73683;DHT22;72538;48.146;11.740;2023-10-13T12:40:58;45.80;14.60
73683;DHT22;72538;48.146;11.740;2023-10-13T12:43:42;46.60;13.70
73683;DHT22;72538;48.146;11.740;2023-10-13T12:46:28;42.80;17.90
73683;DHT22;72538;48.146;11.740;2023-10-13T12:49:12;42.40;19.20
73683;DHT22;72538;48.146;11.740;2023-10-13T12:51:57;41.40;19.80
73683;DHT22;72538;48.146;11.740;2023-10-13T12:54:22;41.00;20.00
73683;DHT22;72538;48.146;11.740;2023-10-13T12:56:53;42.10;20.20
73683;DHT22;72538;48.146;11.740;2023-10-13T12:59:20;41.90;19.30
73683;DHT22;72538;48.146;11.740;2023-10-13T13:01:48;40.70;19.80
73683;DHT22;72538;48.146;11.740;2023-10-13T13:04:14;40.70;20.00
73683;DHT22;72538;48.146;11.740;2023-10-13T13:06:41;41.50;20.30
73683;DHT22;72538;48.146;11.740;2023-10-13T13:09:07;41.40;16.90
73683;DHT22;72538;48.146;11.740;2023-10-13T13:11:36;41.50;19.40
73683;DHT22;72538;48.146;11.740;2023-10-13T13:14:08;42.00;19.00
73683;DHT22;72538;48.146;11.740;2023-10-13T13:16:36;43.70;18.60
73683;DHT22;72538;48.146;11.740;2023-10-13T13:19:03;42.00;18.40
73683;DHT22;72538;48.146;11.740;2023-10-13T13:21:31;42.50;18.10
73683;DHT22;72538;48.146;11.740;2023-10-13T13:23:57;42.90;19.40
73683;DHT22;72538;48.146;11.740;2023-10-13T13:26:24;44.50;18.80
73683;DHT22;72538;48.146;11.740;2023-10-13T13:28:50;46.00;17.90
73683;DHT22;72538;48.146;11.740;2023-10-13T13:31:20;46.60;17.30
73683;DHT22;72538;48.146;11.740;2023-10-13T13:33:48;45.60;18.00
73683;DHT22;72538;48.146;11.740;2023-10-13T13:36:15;45.50;17.60
73683;DHT22;72538;48.146;11.740;2023-10-13T13:38:42;42.90;18.20
73683;DHT22;72538;48.146;11.740;2023-10-13T13:41:13;41.90;18.50
73683;DHT22;72538;48.146;11.740;2023-10-13T13:43:44;40.90;19.40
73683;DHT22;72538;48.146;11.740;2023-10-13T13:46:19;41.00;19.70
73683;DHT22;72538;48.146;11.740;2023-10-13T13:48:45;40.70;20.40
73683;DHT22;72538;48.146;11.740;2023-10-13T13:51:14;39.90;19.90
73683;DHT22;72538;48.146;11.740;2023-10-13T13:53:47;36.70;20.60
73683;DHT22;72538;48.146;11.740;2023-10-13T13:56:14;34.20;23.10
73683;DHT22;72538;48.146;11.740;2023-10-13T13:58:44;32.70;25.00
73683;DHT22;72538;48.146;11.740;2023-10-13T14:01:11;32.10;25.70
73683;DHT22;72538;48.146;11.740;2023-10-13T14:03:41;30.90;25.70
73683;DHT22;72538;48.146;11.740;2023-10-13T14:06:12;30.10;27.10
73683;DHT22;72538;48.146;11.740;2023-10-13T14:08:39;29.40;28.10
73683;DHT22;72538;48.146;11.740;2023-10-13T14:11:07;29.00;28.90
73683;DHT22;72538;48.146;11.740;2023-10-13T14:13:38;28.60;29.60
73683;DHT22;72538;48.146;11.740;2023-10-13T14:16:06;28.30;29.70
73683;DHT22;72538;48.146;11.740;2023-10-13T14:18:34;28.10;31.10
73683;DHT22;72538;48.146;11.740;2023-10-13T14:20:59;27.90;30.50
73683;DHT22;72538;48.146;11.740;2023-10-13T14:23:27;27.70;29.70
73683;DHT22;72538;48.146;11.740;2023-10-13T14:25:53;27.60;30.40
73683;DHT22;72538;48.146;11.740;2023-10-13T14:28:20;27.30;31.10
73683;DHT22;72538;48.146;11.740;2023-10-13T14:30:46;27.30;31.50
73683;DHT22;72538;48.146;11.740;2023-10-13T14:33:12;27.30;31.50
73683;DHT22;72538;48.146;11.740;2023-10-13T14:35:38;27.30;30.50
73683;DHT22;72538;48.146;11.740;2023-10-13T14:38:04;27.20;30.70
73683;DHT22;72538;48.146;11.740;2023-10-13T14:40:29;27.10;30.00
73683;DHT22;72538;48.146;11.740;2023-10-13T14:42:55;27.10;31.30
73683;DHT22;72538;48.146;11.740;2023-10-13T14:45:22;27.00;32.60
73683;DHT22;72538;48.146;11.740;2023-10-13T14:47:47;26.90;33.90
73683;DHT22;72538;48.146;11.740;2023-10-13T14:50:13;26.80;34.60
73683;DHT22;72538;48.146;11.740;2023-10-13T14:52:51;26.60;35.00
73683;DHT22;72538;48.146;11.740;2023-10-13T14:55:14;26.50;34.10
73683;DHT22;72538;48.146;11.740;2023-10-13T14:57:50;26.40;34.70
73683;DHT22;72538;48.146;11.740;2023-10-13T15:00:17;26.30;35.30
73683;DHT22;72538;48.146;11.740;2023-10-13T15:02:45;26.20;35.00
73683;DHT22;72538;48.146;11.740;2023-10-13T15:05:10;26.20;35.80
73683;DHT22;72538;48.146;11.740;2023-10-13T15:07:42;26.10;36.10
73683;DHT22;72538;48.146;11.740;2023-10-13T15:10:13;26.10;36.80
73683;DHT22;72538;48.146;11.740;2023-10-13T15:12:45;25.90;36.90
73683;DHT22;72538;48.146;11.740;2023-10-13T15:15:10;25.90;37.20
73683;DHT22;72538;48.146;11.740;2023-10-13T15:17:38;25.70;37.60
73683;DHT22;72538;48.146;11.740;2023-10-13T15:20:06;25.70;38.20
73683;DHT22;72538;48.146;11.740;2023-10-13T15:22:34;25.70;38.80
73683;DHT22;72538;48.146;11.740;2023-10-13T15:25:01;25.50;39.60
73683;DHT22;72538;48.146;11.740;2023-10-13T15:27:44;25.30;40.10
73683;DHT22;72538;48.146;11.740;2023-10-13T15:30:12;25.10;40.80
73683;DHT22;72538;48.146;11.740;2023-10-13T15:32:49;25.00;41.50
73683;DHT22;72538;48.146;11.740;2023-10-13T15:35:17;24.80;42.10
73683;DHT22;72538;48.146;11.740;2023-10-13T15:37:43;24.60;42.70
73683;DHT22;72538;48.146;11.740;2023-10-13T15:40:11;24.50;43.20
73683;DHT22;72538;48.146;11.740;2023-10-13T15:42:39;24.40;43.80
73683;DHT22;72538;48.146;11.740;2023-10-13T15:45:07;24.30;44.10
73683;DHT22;72538;48.146;11.740;2023-10-13T15:47:35;24.20;44.60
73683;DHT22;72538;48.146;11.740;2023-10-13T15:50:01;24.10;45.40